Skip Navigation LinksHome page > Weather > Current weather Skip Navigation Links

Current Weather

Ndjamena, Chad

For information only: do not use for flight planning or navigation.
Latest weather
Observation time Wednesday, May 4, 2016 8:00 AM WAT
Local time Wednesday, May 4, 2016 8:53 AM WAT
Flight conditions Marginal Visual Meteorological Conditions
Winds
Wind direction Southwest (220°)
Wind speed 12 mph
Visibility 5 mi.
Sky condition
Ceiling unlimited
Temperature 88°F
Dewpoint 68°F
Altimeter 29.83 in.Hg
Derived measurements
Relative humidity 52%
Heat index 91°F
Density altitude 2551 ft.
Remarks
No significant changes expected in the next two hours.
METAR FTTJ 040700Z 22010KT 8000 NSC 31/20 Q1010 NOSIG

Settings

Location code

InnerDrive.Weather 4.0.5722.1 Release CLR 4.0.30319.34209
Copyright ©2015 Inner Drive Technology. All rights reserved. Portions Copyright ©1986-2015 David Braverman.

Find weather

Site navigation


Skip Navigation Links

Place info

Page info

PayPal - The safer, easier way to pay online!

Return home.

Copyright ©2016 Inner Drive Technology. Purveyors of fine, hand-crafted computer software. Page printed 2016-05-04T07:53:07 UTC.